Time;durP1;ratioP1;P1;durP2;ratioP2;P2;SDS_P1;SDS_P2;PMS_P1;PMS_P2;Temp;Humidity;BMP_temperature;BMP_pressure;BME280_temperature;BME280_humidity;BME280_pressure;Samples;Min_cycle;Max_cycle;Signal;HPM_P1;HPM_P2
2023/10/02 00:01:10;;;;;;;9.70;7.13;;;;;;;20.11;55.29;100026.97;6336138;22;20002;-85
2023/10/02 00:03:40;;;;;;;12.27;7.13;;;;;;;20.02;55.65;100010.44;6335973;22;19999;-87
2023/10/02 00:06:06;;;;;;;12.30;8.02;;;;;;;20.50;55.53;100104.50;6335917;22;20002;-86
2023/10/02 00:08:35;;;;;;;9.52;6.07;;;;;;;20.16;55.50;100047.25;6335811;22;20006;-86
2023/10/02 00:14:18;;;;;;;18.15;7.32;;;;;;;19.98;56.16;100043.63;6335862;22;20449;-86
2023/10/02 00:16:59;;;;;;;13.38;6.80;;;;;;;19.96;55.63;100012.56;6335324;22;20003;-86
2023/10/02 00:19:39;;;;;;;13.68;7.47;;;;;;;20.08;55.33;100040.50;6335466;22;20003;-85
2023/10/02 00:22:34;;;;;;;11.55;8.00;;;;;;;20.06;55.65;100035.22;6335423;22;20007;-86
2023/10/02 00:24:57;;;;;;;15.55;8.13;;;;;;;19.94;56.05;100031.38;6335007;22;20395;-85
2023/10/02 00:27:26;;;;;;;16.10;8.23;;;;;;;19.98;55.41;100021.38;6335937;22;19999;-86
2023/10/02 00:29:52;;;;;;;12.77;8.55;;;;;;;19.96;55.70;100028.63;6335396;22;20003;-86
2023/10/02 00:32:19;;;;;;;12.60;7.22;;;;;;;20.08;55.97;100067.28;6307685;22;20441;-85
2023/10/02 00:34:50;;;;;;;14.75;7.30;;;;;;;19.95;55.80;100038.44;6336027;22;20006;-86
2023/10/02 00:37:16;;;;;;;12.25;7.82;;;;;;;19.77;55.80;100005.41;6335096;22;20412;-86
2023/10/02 00:39:47;;;;;;;10.38;7.28;;;;;;;20.10;55.44;100046.69;6335648;22;20033;-86
2023/10/02 00:42:16;;;;;;;17.98;9.10;;;;;;;20.29;55.34;100066.25;6335470;22;20007;-85
2023/10/02 00:45:01;;;;;;;13.70;7.88;;;;;;;20.02;55.14;100039.88;6335734;22;19998;-86
2023/10/02 00:47:47;;;;;;;17.38;7.05;;;;;;;19.95;55.45;100016.16;6333050;22;20023;-86
2023/10/02 00:50:25;;;;;;;12.55;7.38;;;;;;;19.87;55.60;100011.19;6333740;22;20382;-85
2023/10/02 00:52:59;;;;;;;12.85;7.43;;;;;;;20.53;55.24;100106.19;6335778;22;20480;-86
2023/10/02 00:55:26;;;;;;;13.93;7.88;;;;;;;20.07;55.37;100020.91;6335821;22;20081;-88
2023/10/02 00:57:58;;;;;;;16.13;8.40;;;;;;;20.01;55.11;100023.88;6335522;22;20002;-85
2023/10/02 01:00:35;;;;;;;10.98;7.25;;;;;;;20.22;55.67;100088.94;6335565;22;20009;-88
2023/10/02 01:03:02;;;;;;;13.38;7.50;;;;;;;19.67;55.83;100014.78;6335461;22;20127;-85
2023/10/02 01:05:41;;;;;;;16.15;8.88;;;;;;;20.19;55.76;100086.41;6335396;22;20082;-85
2023/10/02 01:08:43;;;;;;;20.63;8.10;;;;;;;20.56;55.24;100089.94;6335711;22;20037;-86
2023/10/02 01:11:13;;;;;;;13.93;8.65;;;;;;;19.97;55.85;100049.97;6335847;22;20003;-85
2023/10/02 01:13:39;;;;;;;11.02;6.80;;;;;;;20.07;55.49;100055.72;6335558;22;20003;-85
2023/10/02 01:16:08;;;;;;;12.48;7.00;;;;;;;20.27;55.30;100068.13;6335458;22;20072;-85
2023/10/02 01:18:35;;;;;;;9.88;7.15;;;;;;;20.10;55.20;100033.28;6335364;22;20002;-86
2023/10/02 01:21:09;;;;;;;12.35;7.30;;;;;;;19.88;55.03;100042.38;6335072;22;20146;-87
2023/10/02 01:24:07;;;;;;;15.40;8.95;;;;;;;20.43;55.00;100115.59;6306530;22;20010;-87
2023/10/02 01:26:40;;;;;;;15.57;7.70;;;;;;;20.29;55.19;100074.28;6307753;22;20102;-91
2023/10/02 01:29:07;;;;;;;15.15;8.30;;;;;;;19.84;55.86;100063.03;6306264;22;20014;-89
2023/10/02 01:31:42;;;;;;;12.52;7.47;;;;;;;19.64;55.84;100039.00;6307823;22;20370;-88
2023/10/02 01:34:10;;;;;;;10.75;6.70;;;;;;;19.82;55.42;100015.91;6335047;22;20353;-86
2023/10/02 01:36:39;;;;;;;10.57;7.45;;;;;;;20.21;55.69;100112.16;6335042;22;20488;-86
2023/10/02 01:39:13;;;;;;;10.65;6.78;;;;;;;19.75;55.66;100015.28;6334834;22;20003;-85
2023/10/02 01:41:48;;;;;;;13.60;7.47;;;;;;;19.79;56.10;100056.19;6335603;22;20089;-86
2023/10/02 01:44:20;;;;;;;15.95;7.88;;;;;;;20.19;55.93;100115.88;6335168;22;19999;-87
2023/10/02 01:47:04;;;;;;;12.63;7.38;;;;;;;19.69;56.13;100036.97;6335517;22;20006;-87
2023/10/02 01:49:30;;;;;;;13.47;8.77;;;;;;;19.57;56.18;100035.75;6334760;22;20003;-86
2023/10/02 01:52:11;;;;;;;11.13;7.60;;;;;;;19.40;56.51;99988.41;6335071;22;20452;-86
2023/10/02 01:54:40;;;;;;;18.27;8.13;;;;;;;19.80;56.49;100061.47;6335243;22;19998;-86
2023/10/02 01:57:06;;;;;;;13.60;8.85;;;;;;;19.78;56.33;100036.56;6335206;22;20003;-87
2023/10/02 01:59:32;;;;;;;8.93;6.63;;;;;;;19.74;56.24;100004.63;6333959;22;20516;-88
2023/10/02 02:01:57;;;;;;;12.95;7.22;;;;;;;19.42;56.42;99986.50;6333245;22;20361;-88
2023/10/02 02:04:33;;;;;;;12.85;7.65;;;;;;;20.09;56.65;100102.03;6334179;22;20014;-88
2023/10/02 02:07:00;;;;;;;14.75;7.47;;;;;;;19.60;56.95;100038.28;6334448;22;20514;-88
2023/10/02 02:09:30;;;;;;;15.75;8.30;;;;;;;19.69;56.08;100031.63;6335302;22;20087;-86
2023/10/02 02:12:12;;;;;;;18.88;7.93;;;;;;;19.53;56.46;100017.25;6333278;22;20003;-88
2023/10/02 02:14:49;;;;;;;13.30;7.93;;;;;;;19.37;56.62;99995.69;6335499;22;20395;-86
2023/10/02 02:17:20;;;;;;;9.85;6.30;;;;;;;19.53;56.41;100007.41;6334561;22;19999;-86
2023/10/02 02:19:49;;;;;;;12.93;7.90;;;;;;;19.77;56.71;100056.25;6333263;22;19999;-86
2023/10/02 02:22:26;;;;;;;12.55;7.75;;;;;;;19.63;56.33;100022.09;6334530;22;20003;-85
2023/10/02 02:24:58;;;;;;;10.98;7.65;;;;;;;19.55;56.37;100007.34;6335215;22;20448;-86
2023/10/02 02:27:24;;;;;;;16.83;8.63;;;;;;;19.54;56.62;100032.34;6334463;22;20006;-85
2023/10/02 02:29:54;;;;;;;12.55;8.73;;;;;;;19.79;56.28;100046.34;6334559;22;20335;-85
2023/10/02 02:32:36;;;;;;;10.45;7.40;;;;;;;19.62;56.23;100036.41;6334682;22;20476;-85
2023/10/02 02:35:08;;;;;;;12.02;7.85;;;;;;;19.81;55.88;100036.41;6335033;22;20015;-87
2023/10/02 02:37:34;;;;;;;11.45;8.02;;;;;;;19.72;55.77;100011.88;6334760;22;20071;-85
2023/10/02 02:42:53;;;;;;;10.77;7.18;;;;;;;19.48;56.10;100006.75;6336441;22;20009;-86
2023/10/02 02:45:28;;;;;;;14.82;8.00;;;;;;;20.26;55.71;100103.88;6336597;22;20052;-85
2023/10/02 02:48:06;;;;;;;12.70;6.18;;;;;;;20.10;54.93;100070.78;6336600;22;20014;-87
2023/10/02 02:50:35;;;;;;;11.25;7.00;;;;;;;20.37;55.11;100100.69;6336272;22;20006;-87
2023/10/02 02:56:22;;;;;;;14.80;8.57;;;;;;;19.85;54.83;100026.44;6335813;22;20026;-86
2023/10/02 02:58:52;;;;;;;12.27;7.72;;;;;;;19.91;55.13;100050.25;6336146;22;20441;-86
2023/10/02 03:01:23;;;;;;;11.98;7.22;;;;;;;19.90;54.60;100034.25;6336428;22;20003;-85
2023/10/02 03:03:55;;;;;;;9.93;6.53;;;;;;;19.57;54.98;100009.00;6336672;22;20437;-85
2023/10/02 03:06:24;;;;;;;17.63;7.65;;;;;;;19.64;55.18;100009.56;6336096;22;20006;-86
2023/10/02 03:08:54;;;;;;;13.48;7.60;;;;;;;19.99;54.63;100040.03;6308887;22;20364;-86
2023/10/02 03:11:22;;;;;;;11.88;7.15;;;;;;;19.97;54.49;100017.84;6336588;22;20060;-85
2023/10/02 03:13:48;;;;;;;11.02;6.85;;;;;;;19.74;54.25;100026.94;6336750;22;20059;-84
2023/10/02 03:16:28;;;;;;;12.63;8.10;;;;;;;20.01;54.84;100080.13;6335834;22;20003;-87
2023/10/02 03:18:56;;;;;;;11.07;7.40;;;;;;;19.86;55.08;100076.34;6336941;22;20034;-85
2023/10/02 03:21:24;;;;;;;11.52;6.78;;;;;;;20.21;54.64;100087.19;6336359;22;20036;-87
2023/10/02 03:23:53;;;;;;;12.93;7.60;;;;;;;19.85;54.46;100063.94;6336052;22;20441;-85
2023/10/02 03:26:43;;;;;;;15.20;6.38;;;;;;;19.73;54.74;100043.06;6336184;22;19999;-84
2023/10/02 03:29:11;;;;;;;12.70;6.75;;;;;;;19.81;54.20;100040.91;6334883;22;20384;-85
2023/10/02 03:31:51;;;;;;;10.70;7.70;;;;;;;19.90;54.23;100048.50;6335796;22;20003;-87
2023/10/02 03:34:27;;;;;;;11.10;6.93;;;;;;;19.82;53.88;100034.63;6308434;22;20014;-83
2023/10/02 03:37:14;;;;;;;10.30;5.65;;;;;;;19.82;54.02;100064.94;6336503;22;20088;-83
2023/10/02 03:39:59;;;;;;;12.95;6.80;;;;;;;19.91;54.00;100076.13;6336188;22;20107;-86
2023/10/02 03:42:33;;;;;;;12.63;6.90;;;;;;;19.97;53.72;100055.31;6308722;22;20395;-84
2023/10/02 03:45:00;;;;;;;12.52;7.03;;;;;;;20.02;53.94;100089.91;6336577;22;20006;-84
2023/10/02 03:47:33;;;;;;;12.02;7.55;;;;;;;19.66;54.57;100059.41;6308177;22;20026;-85
2023/10/02 03:50:02;;;;;;;12.63;5.90;;;;;;;19.52;54.50;100069.88;6335337;22;20002;-85
2023/10/02 03:52:30;;;;;;;13.75;7.32;;;;;;;19.58;54.74;100095.47;6335384;22;20437;-84
2023/10/02 03:54:56;;;;;;;9.43;6.32;;;;;;;19.73;54.14;100080.53;6335108;22;20106;-85
2023/10/02 03:57:47;;;;;;;10.23;6.50;;;;;;;19.60;54.14;100089.13;6334966;22;20007;-84
2023/10/02 04:00:42;;;;;;;9.85;6.25;;;;;;;19.44;54.48;100080.06;6307621;22;20412;-85
2023/10/02 04:03:08;;;;;;;13.23;6.20;;;;;;;19.78;54.38;100129.38;6335055;22;20391;-85
2023/10/02 04:08:21;;;;;;;9.05;5.97;;;;;;;19.23;54.46;100055.16;6336201;22;20078;-86
2023/10/02 04:10:55;;;;;;;12.27;5.70;;;;;;;19.41;54.94;100123.00;6336017;22;20049;-88
2023/10/02 04:13:25;;;;;;;13.18;6.68;;;;;;;19.14;55.27;100086.72;6307882;22;20021;-85
2023/10/02 04:16:06;;;;;;;10.73;5.55;;;;;;;19.38;55.03;100115.97;6335745;22;20007;-86
2023/10/02 04:18:46;;;;;;;10.95;5.30;;;;;;;19.16;55.15;100085.78;6335997;22;20003;-86
2023/10/02 04:21:24;;;;;;;9.27;5.93;;;;;;;19.24;54.38;100076.47;6335420;22;20060;-86
2023/10/02 04:23:53;;;;;;;9.30;5.38;;;;;;;19.15;54.84;100106.28;6307911;22;20428;-86
2023/10/02 04:26:22;;;;;;;8.98;5.13;;;;;;;19.22;54.93;100113.13;6335313;22;20052;-86
2023/10/02 04:28:58;;;;;;;7.43;5.22;;;;;;;19.27;54.56;100095.06;6336205;22;20014;-87
2023/10/02 04:31:29;;;;;;;12.02;6.40;;;;;;;19.27;54.51;100078.16;6335245;22;20003;-86
2023/10/02 04:36:41;;;;;;;14.07;5.25;;;;;;;18.98;54.48;100077.63;6335426;22;20028;-87
2023/10/02 04:39:51;;;;;;;14.18;5.32;;;;;;;19.03;54.60;100094.34;6307989;22;20464;-85
2023/10/02 04:42:12;;;;;;;7.45;4.50;;;;;;;19.14;54.81;100123.28;6335715;22;20002;-86
2023/10/02 04:44:44;;;;;;;9.65;4.95;;;;;;;19.03;54.85;100121.09;6335442;22;20441;-86
2023/10/02 04:47:20;;;;;;;8.55;5.22;;;;;;;19.01;54.40;100108.72;6327466;22;20011;-88
2023/10/02 04:52:37;;;;;;;8.00;4.60;;;;;;;19.42;54.09;100147.00;6303962;22;20014;-86
2023/10/02 04:55:09;;;;;;;5.95;4.30;;;;;;;19.00;54.09;100096.28;6304093;22;20003;-85
2023/10/02 04:57:35;;;;;;;8.80;4.75;;;;;;;19.32;53.93;100130.50;6303825;22;20052;-88
2023/10/02 05:00:19;;;;;;;10.30;6.20;;;;;;;19.29;53.66;100116.38;6304056;22;20011;-85
2023/10/02 05:02:47;;;;;;;7.35;4.10;;;;;;;19.38;53.65;100164.13;6304306;22;20003;-86
2023/10/02 05:05:16;;;;;;;10.68;5.60;;;;;;;19.26;53.58;100112.06;6304919;22;20007;-87
2023/10/02 05:07:47;;;;;;;9.13;5.50;;;;;;;19.09;53.31;100069.13;6303939;22;20003;-89
2023/10/02 05:10:13;;;;;;;18.15;6.00;;;;;;;19.37;53.18;100132.09;6276358;22;20011;-87
2023/10/02 05:12:44;;;;;;;11.57;4.82;;;;;;;19.68;52.91;100166.38;6304393;22;20003;-88
2023/10/02 05:15:20;;;;;;;11.77;4.70;;;;;;;19.53;53.45;100135.81;6304615;22;20014;-90
2023/10/02 05:17:46;;;;;;;10.45;4.47;;;;;;;19.76;52.69;100142.81;6276909;22;20007;-87
2023/10/02 05:20:15;;;;;;;9.18;4.50;;;;;;;19.55;52.85;100128.59;6276627;22;20350;-86
2023/10/02 05:22:42;;;;;;;9.10;5.18;;;;;;;19.68;52.73;100158.34;6276821;22;20350;-87
2023/10/02 05:25:08;;;;;;;12.38;4.97;;;;;;;19.59;52.64;100143.56;6276579;22;20080;-84
2023/10/02 05:27:38;;;;;;;7.15;4.90;;;;;;;19.70;51.77;100151.13;6276257;22;20078;-86
2023/10/02 05:30:12;;;;;;;15.50;5.40;;;;;;;19.78;51.60;100135.59;6276162;22;20019;-85
2023/10/02 05:32:38;;;;;;;6.45;4.13;;;;;;;19.60;51.38;100106.97;6304222;22;20010;-85
2023/10/02 05:35:23;;;;;;;11.77;4.60;;;;;;;19.63;51.81;100147.84;6304156;22;20473;-86
2023/10/02 05:37:54;;;;;;;21.83;4.78;;;;;;;19.92;51.49;100171.56;6298661;22;20017;-93
2023/10/02 05:42:53;;;;;;;6.70;4.00;;;;;;;19.72;51.60;100156.41;6304338;22;20034;-85
2023/10/02 05:50:52;;;;;;;;;;;;;;;20.45;50.32;100226.25;6336806;22;19999;-87
2023/10/02 05:53:20;;;;;;;6.47;4.70;;;;;;;20.05;50.15;100140.63;6335384;22;20341;-86
2023/10/02 05:58:44;;;;;;;8.18;3.85;;;;;;;19.98;49.74;100142.69;6334913;22;20130;-86
2023/10/02 06:01:34;;;;;;;9.18;5.15;;;;;;;20.45;49.27;100192.28;6335937;22;20091;-85
2023/10/02 06:04:04;;;;;;;10.32;3.88;;;;;;;20.48;49.37;100210.91;6335571;22;20021;-86
2023/10/02 06:06:37;;;;;;;12.93;4.72;;;;;;;20.18;48.96;100146.25;6334974;22;20010;-87
2023/10/02 06:09:03;;;;;;;9.30;3.97;;;;;;;20.64;48.85;100207.47;6335493;22;20090;-85
2023/10/02 06:11:33;;;;;;;8.23;3.92;;;;;;;20.15;48.93;100166.00;6334617;22;20010;-85
2023/10/02 06:14:09;;;;;;;8.57;4.90;;;;;;;20.77;48.80;100242.63;6334425;22;20010;-87
2023/10/02 06:16:38;;;;;;;8.40;4.68;;;;;;;20.61;48.17;100196.91;6335327;22;20006;-86
2023/10/02 06:19:06;;;;;;;18.83;4.65;;;;;;;20.32;46.92;100143.78;6336618;22;20330;-85
2023/10/02 06:21:46;;;;;;;7.97;3.40;;;;;;;20.52;46.79;100174.97;6336414;22;20007;-83
2023/10/02 06:24:19;;;;;;;6.38;3.03;;;;;;;21.21;45.97;100231.47;6337687;22;20003;-86
2023/10/02 06:27:22;;;;;;;9.30;3.35;;;;;;;21.03;45.37;100198.44;6336536;22;19999;-85
2023/10/02 06:29:37;;;;;;;15.98;4.00;;;;;;;21.54;45.10;100255.75;6332228;22;20026;-86
2023/10/02 06:32:11;;;;;;;7.65;3.45;;;;;;;22.04;44.19;100269.28;6336877;22;20002;-85
2023/10/02 06:34:39;;;;;;;10.18;3.95;;;;;;;21.77;44.04;100216.13;6337408;22;20002;-85
2023/10/02 06:37:07;;;;;;;7.13;4.25;;;;;;;21.42;44.00;100246.47;6335773;22;20440;-85
2023/10/02 06:39:37;;;;;;;6.95;3.88;;;;;;;21.19;44.63;100226.19;6337358;22;20006;-86
2023/10/02 06:42:07;;;;;;;9.27;3.33;;;;;;;21.17;45.41;100238.81;6336528;22;20074;-88
2023/10/02 06:44:52;;;;;;;9.30;4.20;;;;;;;21.59;45.09;100252.84;6309511;22;20003;-87
2023/10/02 06:47:21;;;;;;;7.35;4.28;;;;;;;21.77;44.62;100243.81;6337378;22;20349;-87
2023/10/02 06:49:47;;;;;;;6.55;3.97;;;;;;;21.89;44.39;100250.38;6308883;22;20007;-87
2023/10/02 06:52:15;;;;;;;8.68;3.90;;;;;;;21.77;44.20;100241.13;6336267;22;20099;-88
2023/10/02 06:54:45;;;;;;;5.20;3.38;;;;;;;21.85;44.28;100281.00;6336642;22;20082;-87
2023/10/02 06:57:13;;;;;;;8.95;3.72;;;;;;;21.70;44.24;100241.53;6308408;22;20003;-86
2023/10/02 06:59:51;;;;;;;7.55;3.13;;;;;;;22.01;43.52;100267.63;6336516;22;20002;-88
2023/10/02 07:02:23;;;;;;;6.35;3.10;;;;;;;21.72;42.96;100218.16;6335944;22;20065;-91
2023/10/02 07:04:53;;;;;;;5.63;3.17;;;;;;;21.71;42.44;100245.97;6307198;22;20006;-91
2023/10/02 07:07:32;;;;;;;7.47;4.28;;;;;;;21.76;42.24;100217.91;6308466;22;20111;-89
2023/10/02 07:10:08;;;;;;;9.63;3.83;;;;;;;22.12;41.51;100246.44;6336273;22;20010;-90
2023/10/02 07:12:40;;;;;;;7.45;3.35;;;;;;;22.57;41.00;100264.63;6307445;22;20007;-90
2023/10/02 07:15:10;;;;;;;19.27;6.32;;;;;;;22.11;41.04;100230.41;6308827;22;20353;-89
2023/10/02 07:17:47;;;;;;;7.35;3.45;;;;;;;22.61;40.79;100259.00;6336737;22;20002;-87
2023/10/02 07:20:15;;;;;;;5.88;3.22;;;;;;;22.38;40.36;100193.09;6335549;22;20003;-87
2023/10/02 07:22:43;;;;;;;7.43;3.53;;;;;;;22.10;40.70;100232.22;6337280;22;20010;-89
2023/10/02 07:25:09;;;;;;;6.97;4.35;;;;;;;22.20;40.52;100226.34;6335768;22;20003;-89
2023/10/02 07:27:37;;;;;;;6.47;3.40;;;;;;;22.50;39.58;100258.75;6306855;22;20007;-88
2023/10/02 07:30:04;;;;;;;5.65;3.45;;;;;;;22.35;40.19;100245.22;6334065;22;20445;-84
2023/10/02 07:32:39;;;;;;;12.25;3.47;;;;;;;22.39;39.08;100215.47;6337001;22;20423;-87
2023/10/02 07:35:17;;;;;;;6.50;3.17;;;;;;;22.55;38.69;100192.16;6334634;22;20020;-90
2023/10/02 07:37:58;;;;;;;11.65;3.55;;;;;;;22.63;39.07;100257.13;6336476;22;20224;-89
2023/10/02 07:40:46;;;;;;;8.10;2.38;;;;;;;22.74;38.08;100226.03;6332687;22;20015;-89
2023/10/02 07:43:23;;;;;;;8.25;3.13;;;;;;;23.15;37.22;100266.72;6334320;22;20007;-89
2023/10/02 07:46:03;;;;;;;7.38;3.53;;;;;;;22.82;37.35;100251.56;6335982;22;20014;-88
2023/10/02 07:48:36;;;;;;;11.70;4.30;;;;;;;22.85;38.24;100237.94;6310706;22;20027;-88
2023/10/02 07:51:09;;;;;;;5.95;2.70;;;;;;;23.24;36.42;100236.56;6304591;22;20513;-88
2023/10/02 07:53:43;;;;;;;7.47;2.70;;;;;;;23.32;36.20;100235.28;6277051;22;20045;-88
2023/10/02 07:56:11;;;;;;;12.05;2.97;;;;;;;23.14;36.21;100234.53;6304870;22;20389;-87
2023/10/02 07:58:54;;;;;;;6.63;2.65;;;;;;;23.28;35.65;100283.03;6276268;22;20007;-88
2023/10/02 08:01:27;;;;;;;9.63;2.67;;;;;;;23.00;36.68;100222.72;6304198;22;20007;-87
2023/10/02 08:03:56;;;;;;;5.28;2.97;;;;;;;23.48;36.16;100233.41;6303401;22;20082;-87
2023/10/02 08:06:36;;;;;;;5.50;2.78;;;;;;;23.82;35.50;100225.97;6304123;22;20010;-86
2023/10/02 08:12:00;;;;;;;8.38;3.15;;;;;;;23.95;34.42;100253.03;6303997;22;20068;-88
2023/10/02 08:20:19;;;;;;;6.28;2.65;;;;;;;23.55;34.80;100228.50;6304310;22;20480;-89
2023/10/02 08:22:54;;;;;;;6.85;2.80;;;;;;;23.87;34.62;100237.34;6304517;22;20000;-87
2023/10/02 08:25:23;;;;;;;7.45;3.17;;;;;;;23.93;34.16;100255.81;6304100;22;20449;-88
2023/10/02 08:27:57;;;;;;;20.13;2.95;;;;;;;24.04;34.71;100283.94;6304434;22;20021;-90
2023/10/02 08:30:42;;;;;;;9.40;3.25;;;;;;;23.96;34.97;100270.94;6276263;22;20042;-90
2023/10/02 08:33:18;;;;;;;8.90;3.17;;;;;;;23.88;34.53;100244.47;6299427;22;20007;-89
2023/10/02 08:36:01;;;;;;;6.13;3.08;;;;;;;23.77;34.65;100204.69;6303454;22;20006;-88
2023/10/02 08:38:27;;;;;;;7.35;2.78;;;;;;;24.33;34.15;100241.66;6276529;22;20094;-87
2023/10/02 08:41:03;;;;;;;6.80;2.90;;;;;;;24.10;34.57;100257.47;6303720;22;20010;-84
2023/10/02 08:43:32;;;;;;;9.65;3.53;;;;;;;24.20;34.47;100251.50;6304400;22;20003;-85
2023/10/02 08:45:58;;;;;;;5.88;2.38;;;;;;;24.13;33.83;100240.25;6303748;22;20003;-86
2023/10/02 08:48:25;;;;;;;13.75;3.65;;;;;;;24.13;33.66;100214.16;6327413;22;20011;-84
2023/10/02 08:50:57;;;;;;;9.23;3.10;;;;;;;24.04;33.82;100211.19;6334996;22;20026;-84
2023/10/02 08:53:23;;;;;;;7.70;2.40;;;;;;;23.89;34.36;100219.25;6335600;22;20009;-86
2023/10/02 08:56:24;;;;;;;6.32;3.42;;;;;;;24.17;32.93;100257.06;6335320;22;20006;-85
2023/10/02 09:02:16;;;;;;;9.55;3.17;;;;;;;24.17;33.26;100230.97;6179278;23;20144;-84
2023/10/02 09:05:09;;;;;;;15.25;3.67;;;;;;;23.97;33.38;100223.28;6179400;23;20517;-85
2023/10/02 09:10:25;;;;;;;5.27;2.53;;;;;;;24.27;33.94;100252.84;6178177;23;20019;-87
2023/10/02 09:13:09;;;;;;;7.38;3.03;;;;;;;24.60;33.66;100284.88;6177812;23;20009;-83
2023/10/02 09:15:35;;;;;;;8.25;2.78;;;;;;;24.27;33.64;100215.09;6179073;23;20009;-83
2023/10/02 09:18:19;;;;;;;8.65;2.78;;;;;;;24.70;33.31;100265.41;6179290;23;20098;-84
2023/10/02 09:21:04;;;;;;;7.63;3.17;;;;;;;24.29;32.75;100215.88;6179311;23;20029;-84
2023/10/02 09:23:30;;;;;;;4.85;2.75;;;;;;;24.44;32.64;100239.16;6179183;23;20433;-86
2023/10/02 09:26:16;;;;;;;4.47;2.38;;;;;;;24.70;32.59;100233.03;6179130;23;20087;-89
2023/10/02 09:28:58;;;;;;;5.88;2.75;;;;;;;24.15;32.80;100253.63;6178645;23;20113;-83
2023/10/02 09:31:26;;;;;;;5.68;3.15;;;;;;;23.95;32.72;100226.09;6179365;23;20020;-86
2023/10/02 09:33:52;;;;;;;9.57;3.70;;;;;;;24.28;33.27;100231.19;6178733;23;20013;-86
2023/10/02 09:36:34;;;;;;;8.55;2.85;;;;;;;24.42;32.34;100207.84;6268739;22;20013;-85
2023/10/02 09:39:31;;;;;;;12.43;3.85;;;;;;;24.84;33.01;100257.31;6335012;22;20429;-85
2023/10/02 09:41:53;;;;;;;7.00;2.65;;;;;;;24.89;32.22;100236.28;6334056;22;20003;-84
2023/10/02 09:44:27;;;;;;;10.18;3.92;;;;;;;25.09;33.00;100256.53;6333376;22;20006;-82
2023/10/02 09:46:53;;;;;;;16.48;3.90;;;;;;;25.10;31.37;100244.78;6333781;22;20453;-83
2023/10/02 09:49:30;;;;;;;8.13;3.25;;;;;;;25.16;30.70;100195.78;6335285;22;20003;-83
2023/10/02 09:52:17;;;;;;;7.20;3.20;;;;;;;25.16;31.69;100235.38;6335838;22;20098;-83
2023/10/02 09:55:16;;;;;;;10.45;4.13;;;;;;;25.42;31.49;100262.50;6308595;22;20422;-84
2023/10/02 09:57:52;;;;;;;7.90;3.22;;;;;;;24.90;31.25;100208.34;6240309;23;20008;-83
2023/10/02 10:03:30;;;;;;;6.63;2.88;;;;;;;25.86;30.95;100255.88;6240059;23;20073;-82
2023/10/02 10:06:16;;;;;;;7.00;3.17;;;;;;;25.78;30.70;100228.50;6239641;23;20090;-85
2023/10/02 10:11:42;;;;;;;11.65;3.88;;;;;;;26.06;31.03;100243.69;6151248;23;20069;-85
2023/10/02 10:14:44;;;;;;;9.45;3.80;;;;;;;25.98;29.93;100240.63;6150595;23;20014;-85
2023/10/02 10:17:21;;;;;;;6.97;3.00;;;;;;;25.95;30.69;100232.72;6150999;23;20006;-86
2023/10/02 10:20:08;;;;;;;9.30;3.58;;;;;;;26.00;31.52;100234.16;6151362;23;20010;-83
2023/10/02 10:22:39;;;;;;;6.35;2.97;;;;;;;25.70;31.38;100186.69;6149983;23;20472;-83
2023/10/02 10:25:32;;;;;;;11.30;4.43;;;;;;;26.35;30.78;100233.44;6150734;23;20017;-84
2023/10/02 10:27:59;;;;;;;9.70;3.60;;;;;;;25.90;30.72;100185.28;6143291;23;20033;-84
2023/10/02 10:30:25;;;;;;;7.90;3.17;;;;;;;26.31;29.52;100204.91;6151268;23;20014;-84
2023/10/02 10:35:41;;;;;;;6.63;2.70;;;;;;;25.99;29.53;100188.31;6178673;23;20005;-83
2023/10/02 10:38:22;;;;;;;7.78;3.20;;;;;;;26.04;29.39;100232.09;6180620;23;20399;-83
2023/10/02 10:40:54;;;;;;;8.73;3.03;;;;;;;26.04;29.90;100170.81;6180110;23;20114;-83
2023/10/02 10:43:26;;;;;;;6.72;2.90;;;;;;;26.36;29.54;100159.47;6180814;23;20039;-83
2023/10/02 10:45:54;;;;;;;7.65;3.20;;;;;;;26.09;28.90;100132.63;6154997;23;20114;-83
2023/10/02 10:48:24;;;;;;;8.43;3.65;;;;;;;26.19;29.54;100152.59;6328404;22;20015;-85
2023/10/02 10:50:59;;;;;;;5.72;2.90;;;;;;;26.82;29.35;100205.72;6336082;22;20006;-87
2023/10/02 10:53:28;;;;;;;;;;;;;;;26.47;29.48;100204.66;6309573;22;20034;-88
2023/10/02 10:56:05;;;;;;;6.00;2.80;;;;;;;25.82;29.40;100124.66;6308705;22;19941;-83
2023/10/02 10:58:35;;;;;;;8.85;3.28;;;;;;;25.66;29.70;100120.34;6336574;22;20026;-85
2023/10/02 11:01:05;;;;;;;15.25;3.33;;;;;;;25.94;29.92;100126.47;6335389;22;19999;-84
2023/10/02 11:03:31;;;;;;;7.10;2.90;;;;;;;25.77;30.03;100127.69;6335961;22;20458;-82
2023/10/02 11:06:04;;;;;;;7.95;3.10;;;;;;;25.81;29.75;100122.91;6336652;22;19999;-83
2023/10/02 11:08:37;;;;;;;7.63;3.13;;;;;;;25.85;29.43;100122.56;6336341;22;20151;-83
2023/10/02 11:11:11;;;;;;;6.20;2.72;;;;;;;26.03;29.01;100139.34;6336186;22;20067;-85
2023/10/02 11:13:50;;;;;;;6.90;3.05;;;;;;;25.98;30.06;100144.22;6336444;22;20041;-82
2023/10/02 11:16:36;;;;;;;7.15;3.33;;;;;;;25.72;29.34;100098.28;6307952;22;20411;-83
2023/10/02 11:19:21;;;;;;;7.03;2.97;;;;;;;26.26;29.19;100129.56;6336129;22;20059;-82
2023/10/02 11:22:16;;;;;;;7.20;3.35;;;;;;;26.76;29.27;100172.75;6336527;22;20353;-82
2023/10/02 11:24:51;;;;;;;7.78;3.13;;;;;;;26.83;28.02;100139.81;6335791;22;20063;-82
2023/10/02 11:27:17;;;;;;;4.93;2.53;;;;;;;26.39;28.92;100118.69;6336046;22;20030;-82
2023/10/02 11:30:01;;;;;;;6.63;2.90;;;;;;;26.47;27.30;100119.94;6336229;22;20010;-82
2023/10/02 11:32:47;;;;;;;7.00;3.27;;;;;;;26.22;27.70;100127.19;6336395;22;20184;-84
2023/10/02 11:35:14;;;;;;;6.30;3.20;;;;;;;25.81;28.02;100114.81;6336272;22;20003;-83
2023/10/02 11:37:47;;;;;;;10.10;3.15;;;;;;;26.23;27.11;100099.19;6335280;22;20461;-83
2023/10/02 11:40:13;;;;;;;6.25;2.65;;;;;;;26.75;27.35;100108.78;6336319;22;19999;-82
2023/10/02 11:42:40;;;;;;;7.25;3.15;;;;;;;26.69;28.20;100105.69;6336100;22;20002;-83
2023/10/02 11:45:06;;;;;;;7.70;3.22;;;;;;;26.92;27.54;100145.38;6336088;22;20415;-82
2023/10/02 11:47:32;;;;;;;7.10;3.78;;;;;;;26.89;26.92;100080.66;6336426;22;20015;-83
2023/10/02 11:49:57;;;;;;;6.78;3.20;;;;;;;27.12;26.43;100111.38;6335457;22;20003;-85
2023/10/02 11:52:23;;;;;;;6.28;2.65;;;;;;;26.67;27.39;100064.38;6307937;22;20438;-85
2023/10/02 11:54:48;;;;;;;9.98;3.33;;;;;;;26.74;27.19;100090.84;6335872;22;20437;-85
2023/10/02 11:57:14;;;;;;;11.52;3.83;;;;;;;26.90;29.06;100116.72;6335586;22;20007;-83
2023/10/02 11:59:47;;;;;;;6.75;3.28;;;;;;;27.22;26.87;100080.84;6335758;22;20006;-84
2023/10/02 12:02:17;;;;;;;9.05;3.10;;;;;;;27.16;26.96;100074.09;6335786;22;20034;-81
2023/10/02 12:04:45;;;;;;;12.48;3.30;;;;;;;26.99;26.55;100121.44;6335203;22;20032;-81
2023/10/02 12:07:12;;;;;;;6.38;3.72;;;;;;;27.10;26.07;100137.72;6335914;22;20379;-82
2023/10/02 12:09:38;;;;;;;9.18;4.00;;;;;;;26.82;26.63;100141.69;6335663;22;20007;-83
2023/10/02 12:12:04;;;;;;;12.73;3.67;;;;;;;27.06;26.43;100136.22;6335655;22;20045;-82
2023/10/02 12:14:30;;;;;;;5.40;3.15;;;;;;;26.67;26.69;100107.66;6336274;22;20471;-82
2023/10/02 12:16:59;;;;;;;6.78;3.30;;;;;;;26.80;26.81;100132.78;6336005;22;20055;-83
2023/10/02 12:19:35;;;;;;;6.22;2.80;;;;;;;26.73;25.17;100132.41;6336133;22;20003;-82
2023/10/02 12:22:05;;;;;;;7.70;3.10;;;;;;;26.58;25.09;100103.78;6307189;22;20010;-83
2023/10/02 12:24:31;;;;;;;5.75;2.88;;;;;;;26.86;24.64;100116.09;6335557;22;20081;-84
2023/10/02 12:26:56;;;;;;;6.03;3.13;;;;;;;27.16;24.47;100139.94;6335994;22;20088;-84
2023/10/02 12:29:23;;;;;;;7.70;3.03;;;;;;;27.22;25.35;100130.47;6335566;22;20006;-84
2023/10/02 12:31:50;;;;;;;8.65;3.20;;;;;;;27.09;24.36;100132.41;6334495;22;20056;-83
2023/10/02 12:34:17;;;;;;;8.55;3.08;;;;;;;27.17;23.21;100105.59;6335242;22;20400;-85
2023/10/02 12:36:44;;;;;;;6.10;3.35;;;;;;;27.25;24.28;100121.25;6334822;22;20002;-82
2023/10/02 12:39:12;;;;;;;8.40;3.03;;;;;;;27.20;24.75;100058.47;6307653;22;20089;-83
2023/10/02 12:41:40;;;;;;;12.18;4.18;;;;;;;27.39;25.29;100106.66;6335757;22;20086;-82